sensor_id;sensor_type;location;lat;lon;timestamp;temperature;humidity
41694;DHT22;27377;50.666;9.150;2023-12-22T00:00:14;5.70;99.90
41694;DHT22;27377;50.666;9.150;2023-12-22T00:02:42;5.70;99.90
41694;DHT22;27377;50.666;9.150;2023-12-22T00:05:08;5.70;99.90
41694;DHT22;27377;50.666;9.150;2023-12-22T00:07:33;5.70;99.90
41694;DHT22;27377;50.666;9.150;2023-12-22T00:09:59;5.70;99.90
41694;DHT22;27377;50.666;9.150;2023-12-22T00:12:24;5.70;99.90
41694;DHT22;27377;50.666;9.150;2023-12-22T00:14:50;5.70;99.90
41694;DHT22;27377;50.666;9.150;2023-12-22T00:17:16;5.70;99.90
41694;DHT22;27377;50.666;9.150;2023-12-22T00:19:41;5.70;99.90
41694;DHT22;27377;50.666;9.150;2023-12-22T00:22:07;5.70;99.90
41694;DHT22;27377;50.666;9.150;2023-12-22T00:24:32;5.70;99.90
41694;DHT22;27377;50.666;9.150;2023-12-22T00:26:58;5.70;99.90
41694;DHT22;27377;50.666;9.150;2023-12-22T00:29:23;5.70;99.90
41694;DHT22;27377;50.666;9.150;2023-12-22T00:31:49;5.70;99.90
41694;DHT22;27377;50.666;9.150;2023-12-22T00:34:14;5.70;99.90
41694;DHT22;27377;50.666;9.150;2023-12-22T00:36:40;5.70;99.90
41694;DHT22;27377;50.666;9.150;2023-12-22T00:39:05;5.70;99.90
41694;DHT22;27377;50.666;9.150;2023-12-22T00:41:31;5.70;99.90
41694;DHT22;27377;50.666;9.150;2023-12-22T00:43:57;5.70;99.90
41694;DHT22;27377;50.666;9.150;2023-12-22T00:46:22;5.70;99.90
41694;DHT22;27377;50.666;9.150;2023-12-22T00:48:48;5.70;99.90
41694;DHT22;27377;50.666;9.150;2023-12-22T00:51:13;5.70;99.90
41694;DHT22;27377;50.666;9.150;2023-12-22T00:53:39;5.70;99.90
41694;DHT22;27377;50.666;9.150;2023-12-22T00:56:05;5.70;99.90
41694;DHT22;27377;50.666;9.150;2023-12-22T00:58:31;5.70;99.90
41694;DHT22;27377;50.666;9.150;2023-12-22T01:00:57;5.70;99.90
41694;DHT22;27377;50.666;9.150;2023-12-22T01:03:22;5.70;99.90
41694;DHT22;27377;50.666;9.150;2023-12-22T01:05:48;5.60;99.90
41694;DHT22;27377;50.666;9.150;2023-12-22T01:08:14;5.60;99.90
41694;DHT22;27377;50.666;9.150;2023-12-22T01:10:39;5.60;99.90
41694;DHT22;27377;50.666;9.150;2023-12-22T01:13:05;5.60;99.90
41694;DHT22;27377;50.666;9.150;2023-12-22T01:15:30;5.60;99.90
41694;DHT22;27377;50.666;9.150;2023-12-22T01:17:56;5.60;99.90
41694;DHT22;27377;50.666;9.150;2023-12-22T01:20:21;5.60;99.90
41694;DHT22;27377;50.666;9.150;2023-12-22T01:22:47;5.60;99.90
41694;DHT22;27377;50.666;9.150;2023-12-22T01:25:12;5.50;99.90
41694;DHT22;27377;50.666;9.150;2023-12-22T01:27:38;5.60;99.90
41694;DHT22;27377;50.666;9.150;2023-12-22T01:30:04;5.50;99.90
41694;DHT22;27377;50.666;9.150;2023-12-22T01:32:30;5.50;99.90
41694;DHT22;27377;50.666;9.150;2023-12-22T01:35:00;5.50;99.90
41694;DHT22;27377;50.666;9.150;2023-12-22T01:37:32;5.50;99.90
41694;DHT22;27377;50.666;9.150;2023-12-22T01:39:57;5.50;99.90
41694;DHT22;27377;50.666;9.150;2023-12-22T01:42:23;5.40;99.90
41694;DHT22;27377;50.666;9.150;2023-12-22T01:44:51;5.40;99.90
41694;DHT22;27377;50.666;9.150;2023-12-22T01:47:17;5.40;99.90
41694;DHT22;27377;50.666;9.150;2023-12-22T01:49:43;5.40;99.90
41694;DHT22;27377;50.666;9.150;2023-12-22T01:52:08;5.40;99.90
41694;DHT22;27377;50.666;9.150;2023-12-22T01:54:34;5.40;99.90
41694;DHT22;27377;50.666;9.150;2023-12-22T01:57:04;5.40;99.90
41694;DHT22;27377;50.666;9.150;2023-12-22T01:59:38;5.40;99.90
41694;DHT22;27377;50.666;9.150;2023-12-22T02:02:15;5.40;99.90
41694;DHT22;27377;50.666;9.150;2023-12-22T02:04:42;5.30;99.90
41694;DHT22;27377;50.666;9.150;2023-12-22T02:07:08;5.30;99.90
41694;DHT22;27377;50.666;9.150;2023-12-22T02:09:36;5.30;99.90
41694;DHT22;27377;50.666;9.150;2023-12-22T02:12:02;5.30;99.90
41694;DHT22;27377;50.666;9.150;2023-12-22T02:14:28;5.30;99.90
41694;DHT22;27377;50.666;9.150;2023-12-22T02:17:14;5.30;99.90
41694;DHT22;27377;50.666;9.150;2023-12-22T02:19:43;5.30;99.90
41694;DHT22;27377;50.666;9.150;2023-12-22T02:22:10;5.30;99.90
41694;DHT22;27377;50.666;9.150;2023-12-22T02:24:37;5.30;99.90
41694;DHT22;27377;50.666;9.150;2023-12-22T02:27:14;5.30;99.90
41694;DHT22;27377;50.666;9.150;2023-12-22T02:29:46;5.30;99.90
41694;DHT22;27377;50.666;9.150;2023-12-22T02:32:20;5.20;99.90
41694;DHT22;27377;50.666;9.150;2023-12-22T02:34:52;5.20;99.90
41694;DHT22;27377;50.666;9.150;2023-12-22T02:37:18;5.20;99.90
41694;DHT22;27377;50.666;9.150;2023-12-22T02:39:46;5.30;99.90
41694;DHT22;27377;50.666;9.150;2023-12-22T02:42:13;5.30;99.90
41694;DHT22;27377;50.666;9.150;2023-12-22T02:44:42;5.30;99.90
41694;DHT22;27377;50.666;9.150;2023-12-22T02:47:07;5.30;99.90
41694;DHT22;27377;50.666;9.150;2023-12-22T02:49:33;5.20;99.90
41694;DHT22;27377;50.666;9.150;2023-12-22T02:52:01;5.30;99.90
41694;DHT22;27377;50.666;9.150;2023-12-22T02:54:30;5.30;99.90
41694;DHT22;27377;50.666;9.150;2023-12-22T02:56:57;5.30;99.90
41694;DHT22;27377;50.666;9.150;2023-12-22T02:59:27;5.30;99.90
41694;DHT22;27377;50.666;9.150;2023-12-22T03:01:53;5.30;99.90
41694;DHT22;27377;50.666;9.150;2023-12-22T03:04:19;5.30;99.90
41694;DHT22;27377;50.666;9.150;2023-12-22T03:06:44;5.30;99.90
41694;DHT22;27377;50.666;9.150;2023-12-22T03:09:13;5.30;99.90
41694;DHT22;27377;50.666;9.150;2023-12-22T03:11:41;5.30;99.90
41694;DHT22;27377;50.666;9.150;2023-12-22T03:14:08;5.30;99.90
41694;DHT22;27377;50.666;9.150;2023-12-22T03:16:34;5.30;99.90
41694;DHT22;27377;50.666;9.150;2023-12-22T03:18:59;5.30;99.90
41694;DHT22;27377;50.666;9.150;2023-12-22T03:21:25;5.30;99.90
41694;DHT22;27377;50.666;9.150;2023-12-22T03:23:51;5.30;99.90
41694;DHT22;27377;50.666;9.150;2023-12-22T03:26:19;5.20;99.90
41694;DHT22;27377;50.666;9.150;2023-12-22T03:28:45;5.20;99.90
41694;DHT22;27377;50.666;9.150;2023-12-22T03:31:12;5.30;99.90
41694;DHT22;27377;50.666;9.150;2023-12-22T03:33:38;5.20;99.90
41694;DHT22;27377;50.666;9.150;2023-12-22T03:36:04;5.20;99.90
41694;DHT22;27377;50.666;9.150;2023-12-22T03:38:29;5.20;99.90
41694;DHT22;27377;50.666;9.150;2023-12-22T03:40:55;5.10;99.90
41694;DHT22;27377;50.666;9.150;2023-12-22T03:43:20;5.20;99.90
41694;DHT22;27377;50.666;9.150;2023-12-22T03:45:46;5.20;99.90
41694;DHT22;27377;50.666;9.150;2023-12-22T03:48:14;5.20;99.90
41694;DHT22;27377;50.666;9.150;2023-12-22T03:50:43;5.20;99.90
41694;DHT22;27377;50.666;9.150;2023-12-22T03:53:09;5.10;99.90
41694;DHT22;27377;50.666;9.150;2023-12-22T03:55:34;5.10;99.90
41694;DHT22;27377;50.666;9.150;2023-12-22T03:58:00;5.10;99.90
41694;DHT22;27377;50.666;9.150;2023-12-22T04:00:26;5.00;99.90
41694;DHT22;27377;50.666;9.150;2023-12-22T04:02:55;5.00;99.90
41694;DHT22;27377;50.666;9.150;2023-12-22T04:05:32;5.00;99.90
41694;DHT22;27377;50.666;9.150;2023-12-22T04:08:02;5.00;99.90
41694;DHT22;27377;50.666;9.150;2023-12-22T04:10:27;5.00;99.90
41694;DHT22;27377;50.666;9.150;2023-12-22T04:12:53;4.90;99.90
41694;DHT22;27377;50.666;9.150;2023-12-22T04:15:18;4.90;99.90
41694;DHT22;27377;50.666;9.150;2023-12-22T04:17:44;4.90;99.90
41694;DHT22;27377;50.666;9.150;2023-12-22T04:20:10;4.90;99.90
41694;DHT22;27377;50.666;9.150;2023-12-22T04:22:36;4.90;99.90
41694;DHT22;27377;50.666;9.150;2023-12-22T04:25:01;4.90;99.90
41694;DHT22;27377;50.666;9.150;2023-12-22T04:27:28;4.90;99.90
41694;DHT22;27377;50.666;9.150;2023-12-22T04:29:54;4.90;99.90
41694;DHT22;27377;50.666;9.150;2023-12-22T04:32:19;4.90;99.90
41694;DHT22;27377;50.666;9.150;2023-12-22T04:34:45;4.90;99.90
41694;DHT22;27377;50.666;9.150;2023-12-22T04:37:10;4.80;99.90
41694;DHT22;27377;50.666;9.150;2023-12-22T04:39:36;4.80;99.90
41694;DHT22;27377;50.666;9.150;2023-12-22T04:42:01;4.90;99.90
41694;DHT22;27377;50.666;9.150;2023-12-22T04:44:27;4.90;99.90
41694;DHT22;27377;50.666;9.150;2023-12-22T04:46:53;4.90;99.90
41694;DHT22;27377;50.666;9.150;2023-12-22T04:49:18;4.80;99.90
41694;DHT22;27377;50.666;9.150;2023-12-22T04:51:44;4.90;99.90
41694;DHT22;27377;50.666;9.150;2023-12-22T04:54:09;4.80;99.90
41694;DHT22;27377;50.666;9.150;2023-12-22T04:56:35;4.80;99.90
41694;DHT22;27377;50.666;9.150;2023-12-22T04:59:01;4.80;99.90
41694;DHT22;27377;50.666;9.150;2023-12-22T05:01:26;4.80;99.90
41694;DHT22;27377;50.666;9.150;2023-12-22T05:03:52;4.80;99.90
41694;DHT22;27377;50.666;9.150;2023-12-22T05:06:19;4.90;99.90
41694;DHT22;27377;50.666;9.150;2023-12-22T05:08:45;4.90;99.90
41694;DHT22;27377;50.666;9.150;2023-12-22T05:11:10;4.90;99.90
41694;DHT22;27377;50.666;9.150;2023-12-22T05:13:36;4.90;99.90
41694;DHT22;27377;50.666;9.150;2023-12-22T05:16:02;4.80;99.90
41694;DHT22;27377;50.666;9.150;2023-12-22T05:18:29;4.90;99.90
41694;DHT22;27377;50.666;9.150;2023-12-22T05:20:55;4.90;99.90
41694;DHT22;27377;50.666;9.150;2023-12-22T05:23:21;4.90;99.90
41694;DHT22;27377;50.666;9.150;2023-12-22T05:25:46;4.90;99.90
41694;DHT22;27377;50.666;9.150;2023-12-22T05:28:12;4.90;99.90
41694;DHT22;27377;50.666;9.150;2023-12-22T05:30:37;4.90;99.90
41694;DHT22;27377;50.666;9.150;2023-12-22T05:33:03;4.90;99.90
41694;DHT22;27377;50.666;9.150;2023-12-22T05:35:29;4.90;99.90
41694;DHT22;27377;50.666;9.150;2023-12-22T05:37:54;4.90;99.90
41694;DHT22;27377;50.666;9.150;2023-12-22T05:40:20;4.90;99.90
41694;DHT22;27377;50.666;9.150;2023-12-22T05:42:45;4.90;99.90
41694;DHT22;27377;50.666;9.150;2023-12-22T05:45:11;4.80;99.90
41694;DHT22;27377;50.666;9.150;2023-12-22T05:47:37;4.90;99.90
41694;DHT22;27377;50.666;9.150;2023-12-22T05:50:04;4.90;99.90
41694;DHT22;27377;50.666;9.150;2023-12-22T05:52:29;4.80;99.90
41694;DHT22;27377;50.666;9.150;2023-12-22T05:54:55;4.80;99.90
41694;DHT22;27377;50.666;9.150;2023-12-22T05:57:20;4.80;99.90
41694;DHT22;27377;50.666;9.150;2023-12-22T05:59:46;4.90;99.90
41694;DHT22;27377;50.666;9.150;2023-12-22T06:02:12;4.90;99.90
41694;DHT22;27377;50.666;9.150;2023-12-22T06:04:38;4.90;99.90
41694;DHT22;27377;50.666;9.150;2023-12-22T06:07:04;4.80;99.90
41694;DHT22;27377;50.666;9.150;2023-12-22T06:09:30;4.80;99.90
41694;DHT22;27377;50.666;9.150;2023-12-22T06:11:55;4.70;99.90
41694;DHT22;27377;50.666;9.150;2023-12-22T06:14:21;4.70;99.90
41694;DHT22;27377;50.666;9.150;2023-12-22T06:16:46;4.70;99.90
41694;DHT22;27377;50.666;9.150;2023-12-22T06:19:12;4.70;99.90
41694;DHT22;27377;50.666;9.150;2023-12-22T06:21:39;4.70;99.90
41694;DHT22;27377;50.666;9.150;2023-12-22T06:24:05;4.70;99.90
41694;DHT22;27377;50.666;9.150;2023-12-22T06:26:30;4.70;99.90
41694;DHT22;27377;50.666;9.150;2023-12-22T06:28:56;4.70;99.90
41694;DHT22;27377;50.666;9.150;2023-12-22T06:31:22;4.70;99.90
41694;DHT22;27377;50.666;9.150;2023-12-22T06:33:48;4.70;99.90
41694;DHT22;27377;50.666;9.150;2023-12-22T06:36:21;4.70;99.90
41694;DHT22;27377;50.666;9.150;2023-12-22T06:38:49;4.70;99.90
41694;DHT22;27377;50.666;9.150;2023-12-22T06:41:20;4.70;99.90
41694;DHT22;27377;50.666;9.150;2023-12-22T06:43:45;4.80;99.90
41694;DHT22;27377;50.666;9.150;2023-12-22T06:46:15;4.80;99.90
41694;DHT22;27377;50.666;9.150;2023-12-22T06:48:41;4.80;99.90
41694;DHT22;27377;50.666;9.150;2023-12-22T06:51:07;4.80;99.90
41694;DHT22;27377;50.666;9.150;2023-12-22T06:53:32;4.80;99.90
41694;DHT22;27377;50.666;9.150;2023-12-22T06:55:58;4.80;99.90
41694;DHT22;27377;50.666;9.150;2023-12-22T06:58:23;4.80;99.90
41694;DHT22;27377;50.666;9.150;2023-12-22T07:00:51;4.90;99.90
41694;DHT22;27377;50.666;9.150;2023-12-22T07:03:16;4.90;99.90
41694;DHT22;27377;50.666;9.150;2023-12-22T07:05:44;4.90;99.90
41694;DHT22;27377;50.666;9.150;2023-12-22T07:08:10;4.90;99.90
41694;DHT22;27377;50.666;9.150;2023-12-22T07:10:35;4.90;99.90
41694;DHT22;27377;50.666;9.150;2023-12-22T07:13:01;4.90;99.90
41694;DHT22;27377;50.666;9.150;2023-12-22T07:15:27;4.90;99.90
41694;DHT22;27377;50.666;9.150;2023-12-22T07:17:53;4.90;99.90
41694;DHT22;27377;50.666;9.150;2023-12-22T07:20:19;5.00;99.90
41694;DHT22;27377;50.666;9.150;2023-12-22T07:22:45;5.00;99.90
41694;DHT22;27377;50.666;9.150;2023-12-22T07:25:11;5.00;99.90
41694;DHT22;27377;50.666;9.150;2023-12-22T07:27:36;5.00;99.90
41694;DHT22;27377;50.666;9.150;2023-12-22T07:30:02;5.00;99.90
41694;DHT22;27377;50.666;9.150;2023-12-22T07:32:28;5.00;99.90
41694;DHT22;27377;50.666;9.150;2023-12-22T07:34:54;5.00;99.90
41694;DHT22;27377;50.666;9.150;2023-12-22T07:37:20;5.10;99.90
41694;DHT22;27377;50.666;9.150;2023-12-22T07:39:45;5.10;99.90
41694;DHT22;27377;50.666;9.150;2023-12-22T07:42:12;5.10;99.90
41694;DHT22;27377;50.666;9.150;2023-12-22T07:44:37;5.10;99.90
41694;DHT22;27377;50.666;9.150;2023-12-22T07:47:03;5.10;99.90
41694;DHT22;27377;50.666;9.150;2023-12-22T07:49:32;5.10;99.90
41694;DHT22;27377;50.666;9.150;2023-12-22T07:52:01;5.10;99.90
41694;DHT22;27377;50.666;9.150;2023-12-22T07:54:30;5.10;99.90
41694;DHT22;27377;50.666;9.150;2023-12-22T11:05:23;5.70;99.90
41694;DHT22;27377;50.666;9.150;2023-12-22T11:07:52;5.70;99.90
41694;DHT22;27377;50.666;9.150;2023-12-22T11:10:21;5.70;99.90
41694;DHT22;27377;50.666;9.150;2023-12-22T11:12:47;5.80;99.90
41694;DHT22;27377;50.666;9.150;2023-12-22T11:15:14;5.80;99.90
41694;DHT22;27377;50.666;9.150;2023-12-22T11:17:42;5.70;99.90
41694;DHT22;27377;50.666;9.150;2023-12-22T11:20:12;5.80;99.90
41694;DHT22;27377;50.666;9.150;2023-12-22T11:22:39;5.80;99.90
41694;DHT22;27377;50.666;9.150;2023-12-22T11:25:06;5.80;99.90
41694;DHT22;27377;50.666;9.150;2023-12-22T11:27:33;5.80;99.90
41694;DHT22;27377;50.666;9.150;2023-12-22T11:30:01;5.80;99.90
41694;DHT22;27377;50.666;9.150;2023-12-22T11:32:29;5.80;99.90
41694;DHT22;27377;50.666;9.150;2023-12-22T11:34:54;5.80;99.90
41694;DHT22;27377;50.666;9.150;2023-12-22T11:37:21;5.80;99.90
41694;DHT22;27377;50.666;9.150;2023-12-22T11:39:47;5.80;99.90
41694;DHT22;27377;50.666;9.150;2023-12-22T11:42:35;5.90;99.90
41694;DHT22;27377;50.666;9.150;2023-12-22T11:45:04;5.80;99.90
41694;DHT22;27377;50.666;9.150;2023-12-22T11:47:30;5.90;99.90
41694;DHT22;27377;50.666;9.150;2023-12-22T11:49:56;5.90;99.90
41694;DHT22;27377;50.666;9.150;2023-12-22T11:52:26;5.90;99.90
41694;DHT22;27377;50.666;9.150;2023-12-22T11:54:54;5.80;99.90
41694;DHT22;27377;50.666;9.150;2023-12-22T11:57:38;5.90;99.90
41694;DHT22;27377;50.666;9.150;2023-12-22T12:02:56;5.90;99.90
41694;DHT22;27377;50.666;9.150;2023-12-22T12:05:22;5.90;99.90
41694;DHT22;27377;50.666;9.150;2023-12-22T12:07:48;5.90;99.90
41694;DHT22;27377;50.666;9.150;2023-12-22T12:13:09;5.90;99.90
41694;DHT22;27377;50.666;9.150;2023-12-22T12:15:36;6.00;99.90
41694;DHT22;27377;50.666;9.150;2023-12-22T12:18:02;6.00;99.90
41694;DHT22;27377;50.666;9.150;2023-12-22T12:20:28;6.00;99.90
41694;DHT22;27377;50.666;9.150;2023-12-22T12:22:54;6.00;99.90
41694;DHT22;27377;50.666;9.150;2023-12-22T12:25:22;6.00;99.90
41694;DHT22;27377;50.666;9.150;2023-12-22T12:28:07;6.00;99.90
41694;DHT22;27377;50.666;9.150;2023-12-22T12:30:35;6.00;99.90
41694;DHT22;27377;50.666;9.150;2023-12-22T12:33:08;6.00;99.90
41694;DHT22;27377;50.666;9.150;2023-12-22T12:35:35;6.00;99.90
41694;DHT22;27377;50.666;9.150;2023-12-22T12:38:00;6.00;99.90
41694;DHT22;27377;50.666;9.150;2023-12-22T12:40:27;6.00;99.90
41694;DHT22;27377;50.666;9.150;2023-12-22T12:42:57;6.00;99.90
41694;DHT22;27377;50.666;9.150;2023-12-22T12:45:23;6.00;99.90
41694;DHT22;27377;50.666;9.150;2023-12-22T12:47:59;6.00;99.90
41694;DHT22;27377;50.666;9.150;2023-12-22T12:50:26;6.00;99.90
41694;DHT22;27377;50.666;9.150;2023-12-22T12:52:52;6.00;99.90
41694;DHT22;27377;50.666;9.150;2023-12-22T12:55:20;6.00;99.90
41694;DHT22;27377;50.666;9.150;2023-12-22T12:57:48;6.00;99.90
41694;DHT22;27377;50.666;9.150;2023-12-22T13:00:16;6.00;99.90
41694;DHT22;27377;50.666;9.150;2023-12-22T13:02:42;6.00;99.90
41694;DHT22;27377;50.666;9.150;2023-12-22T13:05:08;6.00;99.90
41694;DHT22;27377;50.666;9.150;2023-12-22T13:07:35;6.00;99.90
41694;DHT22;27377;50.666;9.150;2023-12-22T13:10:00;6.00;99.90
41694;DHT22;27377;50.666;9.150;2023-12-22T13:12:26;6.00;99.90
41694;DHT22;27377;50.666;9.150;2023-12-22T13:14:52;6.10;99.90
41694;DHT22;27377;50.666;9.150;2023-12-22T13:17:17;6.10;99.90
41694;DHT22;27377;50.666;9.150;2023-12-22T13:19:46;6.10;99.90
41694;DHT22;27377;50.666;9.150;2023-12-22T13:22:18;6.10;99.90
41694;DHT22;27377;50.666;9.150;2023-12-22T13:24:54;6.10;99.90
41694;DHT22;27377;50.666;9.150;2023-12-22T13:27:21;6.20;99.90
41694;DHT22;27377;50.666;9.150;2023-12-22T13:29:46;6.20;99.90
41694;DHT22;27377;50.666;9.150;2023-12-22T13:32:18;6.20;99.90
41694;DHT22;27377;50.666;9.150;2023-12-22T13:34:50;6.20;99.90
41694;DHT22;27377;50.666;9.150;2023-12-22T13:37:19;6.20;99.90
41694;DHT22;27377;50.666;9.150;2023-12-22T13:39:45;6.20;99.90
41694;DHT22;27377;50.666;9.150;2023-12-22T13:42:18;6.20;99.90
41694;DHT22;27377;50.666;9.150;2023-12-22T13:44:47;6.30;99.90
41694;DHT22;27377;50.666;9.150;2023-12-22T13:47:18;6.30;99.90
41694;DHT22;27377;50.666;9.150;2023-12-22T13:49:45;6.30;99.90
41694;DHT22;27377;50.666;9.150;2023-12-22T13:52:31;6.30;99.90
41694;DHT22;27377;50.666;9.150;2023-12-22T13:54:58;6.30;99.90
41694;DHT22;27377;50.666;9.150;2023-12-22T13:57:26;6.30;99.90
41694;DHT22;27377;50.666;9.150;2023-12-22T13:59:52;6.30;99.90
41694;DHT22;27377;50.666;9.150;2023-12-22T14:02:22;6.30;99.90
41694;DHT22;27377;50.666;9.150;2023-12-22T14:04:52;6.30;99.90
41694;DHT22;27377;50.666;9.150;2023-12-22T14:07:18;6.30;99.90
41694;DHT22;27377;50.666;9.150;2023-12-22T14:09:44;6.30;99.90
41694;DHT22;27377;50.666;9.150;2023-12-22T14:12:10;6.30;99.90
41694;DHT22;27377;50.666;9.150;2023-12-22T14:14:38;6.30;99.90
41694;DHT22;27377;50.666;9.150;2023-12-22T14:17:04;6.30;99.90
41694;DHT22;27377;50.666;9.150;2023-12-22T14:19:30;6.30;99.90
41694;DHT22;27377;50.666;9.150;2023-12-22T14:21:56;6.30;99.90
41694;DHT22;27377;50.666;9.150;2023-12-22T14:24:22;6.30;99.90
41694;DHT22;27377;50.666;9.150;2023-12-22T14:26:55;6.20;99.90
41694;DHT22;27377;50.666;9.150;2023-12-22T14:29:20;6.20;99.90
41694;DHT22;27377;50.666;9.150;2023-12-22T14:31:51;6.20;99.90
41694;DHT22;27377;50.666;9.150;2023-12-22T14:34:17;6.20;99.90
41694;DHT22;27377;50.666;9.150;2023-12-22T14:36:44;6.20;99.90
41694;DHT22;27377;50.666;9.150;2023-12-22T14:39:10;6.30;99.90
41694;DHT22;27377;50.666;9.150;2023-12-22T14:41:39;6.30;99.90
41694;DHT22;27377;50.666;9.150;2023-12-22T14:44:11;6.30;99.90
41694;DHT22;27377;50.666;9.150;2023-12-22T14:46:40;6.30;99.90
41694;DHT22;27377;50.666;9.150;2023-12-22T14:49:06;6.30;99.90
41694;DHT22;27377;50.666;9.150;2023-12-22T14:51:38;6.30;99.90
41694;DHT22;27377;50.666;9.150;2023-12-22T14:54:07;6.30;99.90
41694;DHT22;27377;50.666;9.150;2023-12-22T14:56:40;6.30;99.90
41694;DHT22;27377;50.666;9.150;2023-12-22T14:59:11;6.30;99.90
41694;DHT22;27377;50.666;9.150;2023-12-22T15:01:37;6.30;99.90
41694;DHT22;27377;50.666;9.150;2023-12-22T15:04:04;6.40;99.90
41694;DHT22;27377;50.666;9.150;2023-12-22T15:06:31;6.40;99.90
41694;DHT22;27377;50.666;9.150;2023-12-22T15:08:57;6.30;99.90
41694;DHT22;27377;50.666;9.150;2023-12-22T15:11:24;6.40;99.90
41694;DHT22;27377;50.666;9.150;2023-12-22T15:13:50;6.40;99.90
41694;DHT22;27377;50.666;9.150;2023-12-22T15:16:16;6.30;99.90
41694;DHT22;27377;50.666;9.150;2023-12-22T15:18:41;6.40;99.90
41694;DHT22;27377;50.666;9.150;2023-12-22T15:21:07;6.40;99.90
41694;DHT22;27377;50.666;9.150;2023-12-22T15:23:32;6.40;99.90
41694;DHT22;27377;50.666;9.150;2023-12-22T15:25:58;6.40;99.90
41694;DHT22;27377;50.666;9.150;2023-12-22T15:28:23;6.40;99.90
41694;DHT22;27377;50.666;9.150;2023-12-22T15:30:49;6.40;99.90
41694;DHT22;27377;50.666;9.150;2023-12-22T15:33:14;6.40;99.90
41694;DHT22;27377;50.666;9.150;2023-12-22T15:35:40;6.40;99.90
41694;DHT22;27377;50.666;9.150;2023-12-22T15:38:06;6.40;99.90
41694;DHT22;27377;50.666;9.150;2023-12-22T15:40:32;6.40;99.90
41694;DHT22;27377;50.666;9.150;2023-12-22T15:42:57;6.50;99.90
41694;DHT22;27377;50.666;9.150;2023-12-22T15:45:22;6.50;99.90
41694;DHT22;27377;50.666;9.150;2023-12-22T15:47:48;6.50;99.90
41694;DHT22;27377;50.666;9.150;2023-12-22T15:50:13;6.50;99.90
41694;DHT22;27377;50.666;9.150;2023-12-22T15:52:41;6.50;99.90
41694;DHT22;27377;50.666;9.150;2023-12-22T15:55:08;6.50;99.90
41694;DHT22;27377;50.666;9.150;2023-12-22T15:57:34;6.60;99.90
41694;DHT22;27377;50.666;9.150;2023-12-22T16:00:00;6.60;99.90
41694;DHT22;27377;50.666;9.150;2023-12-22T16:02:25;6.60;99.90
41694;DHT22;27377;50.666;9.150;2023-12-22T16:04:51;6.70;99.90
41694;DHT22;27377;50.666;9.150;2023-12-22T16:07:16;6.70;99.90
41694;DHT22;27377;50.666;9.150;2023-12-22T16:09:42;6.70;99.90
41694;DHT22;27377;50.666;9.150;2023-12-22T16:12:07;6.70;99.90
41694;DHT22;27377;50.666;9.150;2023-12-22T16:14:33;6.70;99.90
41694;DHT22;27377;50.666;9.150;2023-12-22T16:16:59;6.80;99.90
41694;DHT22;27377;50.666;9.150;2023-12-22T16:19:25;6.80;99.90
41694;DHT22;27377;50.666;9.150;2023-12-22T16:21:50;6.80;99.90
41694;DHT22;27377;50.666;9.150;2023-12-22T16:24:19;6.80;99.90
41694;DHT22;27377;50.666;9.150;2023-12-22T16:26:45;6.80;99.90
41694;DHT22;27377;50.666;9.150;2023-12-22T16:29:11;6.80;99.90
41694;DHT22;27377;50.666;9.150;2023-12-22T16:31:40;6.80;99.90
41694;DHT22;27377;50.666;9.150;2023-12-22T16:34:06;6.80;99.90
41694;DHT22;27377;50.666;9.150;2023-12-22T16:36:32;6.90;99.90
41694;DHT22;27377;50.666;9.150;2023-12-22T16:38:57;6.80;99.90
41694;DHT22;27377;50.666;9.150;2023-12-22T16:41:23;6.90;99.90
41694;DHT22;27377;50.666;9.150;2023-12-22T16:43:49;6.90;99.90
41694;DHT22;27377;50.666;9.150;2023-12-22T16:46:19;6.90;99.90
41694;DHT22;27377;50.666;9.150;2023-12-22T16:48:44;7.00;99.90
41694;DHT22;27377;50.666;9.150;2023-12-22T16:51:11;7.00;99.90
41694;DHT22;27377;50.666;9.150;2023-12-22T16:53:36;7.00;99.90
41694;DHT22;27377;50.666;9.150;2023-12-22T16:56:02;7.00;99.90
41694;DHT22;27377;50.666;9.150;2023-12-22T16:58:27;7.00;99.90
41694;DHT22;27377;50.666;9.150;2023-12-22T17:00:53;7.10;99.90
41694;DHT22;27377;50.666;9.150;2023-12-22T17:03:18;7.20;99.90
41694;DHT22;27377;50.666;9.150;2023-12-22T17:05:44;7.20;99.90
41694;DHT22;27377;50.666;9.150;2023-12-22T17:08:09;7.20;99.90
41694;DHT22;27377;50.666;9.150;2023-12-22T17:10:36;7.20;99.90
41694;DHT22;27377;50.666;9.150;2023-12-22T17:13:03;7.30;99.90
41694;DHT22;27377;50.666;9.150;2023-12-22T17:15:29;7.30;99.90
41694;DHT22;27377;50.666;9.150;2023-12-22T17:17:54;7.20;99.90
41694;DHT22;27377;50.666;9.150;2023-12-22T17:20:20;7.20;99.90
41694;DHT22;27377;50.666;9.150;2023-12-22T17:22:45;7.20;99.90
41694;DHT22;27377;50.666;9.150;2023-12-22T17:25:12;7.20;99.90
41694;DHT22;27377;50.666;9.150;2023-12-22T17:27:39;7.20;99.90
41694;DHT22;27377;50.666;9.150;2023-12-22T17:30:05;7.20;99.90
41694;DHT22;27377;50.666;9.150;2023-12-22T17:32:30;7.20;99.90
41694;DHT22;27377;50.666;9.150;2023-12-22T17:34:56;7.20;99.90
41694;DHT22;27377;50.666;9.150;2023-12-22T17:37:22;7.20;99.90
41694;DHT22;27377;50.666;9.150;2023-12-22T17:39:47;7.20;99.90
41694;DHT22;27377;50.666;9.150;2023-12-22T17:42:13;7.20;99.90
41694;DHT22;27377;50.666;9.150;2023-12-22T17:44:39;7.20;99.90
41694;DHT22;27377;50.666;9.150;2023-12-22T17:47:05;7.20;99.90
41694;DHT22;27377;50.666;9.150;2023-12-22T17:49:31;7.20;99.90
41694;DHT22;27377;50.666;9.150;2023-12-22T17:51:57;7.20;99.90
41694;DHT22;27377;50.666;9.150;2023-12-22T17:54:23;7.20;99.90
41694;DHT22;27377;50.666;9.150;2023-12-22T17:56:49;7.20;99.90
41694;DHT22;27377;50.666;9.150;2023-12-22T17:59:14;7.20;99.90
41694;DHT22;27377;50.666;9.150;2023-12-22T18:01:41;7.20;99.90
41694;DHT22;27377;50.666;9.150;2023-12-22T18:04:07;7.20;99.90
41694;DHT22;27377;50.666;9.150;2023-12-22T18:06:32;7.30;99.90
41694;DHT22;27377;50.666;9.150;2023-12-22T18:08:58;7.30;99.90
41694;DHT22;27377;50.666;9.150;2023-12-22T18:11:23;7.20;99.90
41694;DHT22;27377;50.666;9.150;2023-12-22T18:13:49;7.30;99.90
41694;DHT22;27377;50.666;9.150;2023-12-22T18:16:20;7.20;99.90
41694;DHT22;27377;50.666;9.150;2023-12-22T18:18:46;7.20;99.90
41694;DHT22;27377;50.666;9.150;2023-12-22T18:21:11;7.20;99.90
41694;DHT22;27377;50.666;9.150;2023-12-22T18:23:37;7.20;99.90
41694;DHT22;27377;50.666;9.150;2023-12-22T18:26:03;7.20;99.90
41694;DHT22;27377;50.666;9.150;2023-12-22T18:28:28;7.30;99.90
41694;DHT22;27377;50.666;9.150;2023-12-22T18:30:54;7.20;99.90
41694;DHT22;27377;50.666;9.150;2023-12-22T18:33:19;7.20;99.90
41694;DHT22;27377;50.666;9.150;2023-12-22T18:35:53;7.20;99.90
41694;DHT22;27377;50.666;9.150;2023-12-22T18:38:20;7.20;99.90
41694;DHT22;27377;50.666;9.150;2023-12-22T18:40:45;7.20;99.90
41694;DHT22;27377;50.666;9.150;2023-12-22T18:43:11;7.20;99.90
41694;DHT22;27377;50.666;9.150;2023-12-22T18:45:37;7.20;99.90
41694;DHT22;27377;50.666;9.150;2023-12-22T18:48:05;7.20;99.90
41694;DHT22;27377;50.666;9.150;2023-12-22T18:50:30;7.20;99.90
41694;DHT22;27377;50.666;9.150;2023-12-22T18:52:56;7.30;99.90
41694;DHT22;27377;50.666;9.150;2023-12-22T18:55:21;7.30;99.90